createdAt,value
2022-10-30T00:01:54.009Z,68965.50
2022-10-30T00:04:23.182Z,67612.91
2022-10-30T00:06:50.613Z,68960.25
2022-10-30T00:09:18.174Z,68274.50
2022-10-30T00:11:45.613Z,67260.75
2022-10-30T00:14:15.405Z,65911.50
2022-10-30T00:16:42.863Z,65906.47
2022-10-30T00:19:10.599Z,66602.97
2022-10-30T00:21:39.396Z,67281.19
2022-10-30T00:24:08.547Z,68960.84
2022-10-30T00:26:36.350Z,67258.47
2022-10-30T00:29:04.191Z,69660.38
2022-10-30T00:31:31.648Z,67957.22
2022-10-30T00:33:59.287Z,68627.47
2022-10-30T00:36:26.738Z,71697.84
2022-10-30T00:38:55.542Z,69659.19
2022-10-30T00:41:25.034Z,70336.63
2022-10-30T00:43:52.963Z,70004.41
2022-10-30T00:46:32.020Z,71369.25
2022-10-30T00:49:04.241Z,69993.78
2022-10-30T00:51:33.990Z,69665.06
2022-10-30T00:54:06.310Z,73074.28
2022-10-30T00:56:33.924Z,73752.34
2022-10-30T00:59:04.720Z,73415.16
2022-10-30T01:01:36.770Z,74422.97
2022-10-30T01:04:07.167Z,74752.56
2022-10-30T01:06:36.569Z,74404.16
2022-10-30T01:09:06.169Z,71001.63
2022-10-30T01:11:33.722Z,73052.13
2022-10-30T01:14:04.829Z,73385.47
2022-10-30T01:16:56.087Z,74064.56
2022-10-30T01:19:31.658Z,75069.44
2022-10-30T01:22:19.537Z,73364.44
2022-10-30T01:24:59.748Z,72678.28
2022-10-30T01:27:36.792Z,70635.47
2022-10-30T01:30:17.287Z,70636.66
2022-10-30T01:32:58.369Z,69602.78
2022-10-30T01:35:31.767Z,70624.16
2022-10-30T01:38:06.469Z,69937.09
2022-10-30T01:40:35.420Z,69604.53
2022-10-30T01:43:02.873Z,68929.41
2022-10-30T01:45:47.353Z,69598.09
2022-10-30T01:48:35.425Z,69276.63
2022-10-30T01:51:14.329Z,69267.25
2022-10-30T01:53:52.619Z,67902.16
2022-10-30T01:56:33.480Z,67914.19
2022-10-30T01:59:08.150Z,69601.00
2022-10-30T02:01:39.426Z,69604.53
2022-10-30T02:04:09.204Z,70587.19
2022-10-30T02:06:37.506Z,69235.66
2022-10-30T02:09:05.097Z,68547.56
2022-10-30T02:11:35.281Z,66844.88
2022-10-30T02:14:06.122Z,67530.75
2022-10-30T02:16:36.427Z,65833.56
2022-10-30T02:19:03.917Z,66848.28
2022-10-30T02:21:33.127Z,66510.78
2022-10-30T02:24:00.599Z,66178.88
2022-10-30T02:26:28.077Z,66509.66
2022-10-30T02:28:55.709Z,64459.84
2022-10-30T02:31:23.194Z,65157.03
2022-10-30T02:33:51.062Z,65495.56
2022-10-30T02:36:19.411Z,65500.56
2022-10-30T02:38:48.588Z,65504.97
2022-10-30T02:41:16.030Z,65171.88
2022-10-30T02:43:43.524Z,65845.81
2022-10-30T02:46:10.976Z,65845.81
2022-10-30T02:48:38.414Z,63470.00
2022-10-30T02:51:06.733Z,65844.69
2022-10-30T02:53:35.318Z,64494.16
2022-10-30T02:56:06.585Z,64501.25
2022-10-30T02:58:34.081Z,65855.84
2022-10-30T03:01:06.968Z,64168.66
2022-10-30T03:03:34.709Z,64854.69
2022-10-30T03:06:02.984Z,64176.78
2022-10-30T03:08:30.892Z,64851.94
2022-10-30T03:11:02.900Z,66208.53
2022-10-30T03:13:33.654Z,67572.41
2022-10-30T03:16:02.481Z,68591.56
2022-10-30T03:18:29.975Z,66211.31
2022-10-30T03:20:58.831Z,68596.19
2022-10-30T03:23:26.681Z,66231.47
2022-10-30T03:25:55.214Z,70637.88
2022-10-30T03:28:23.132Z,67583.22
2022-10-30T03:30:53.182Z,68600.25
2022-10-30T03:33:20.641Z,67235.78
2022-10-30T03:35:48.083Z,67230.09
2022-10-30T03:38:15.558Z,66222.53
2022-10-30T03:40:43.019Z,67243.72
2022-10-30T03:43:11.041Z,67909.03
2022-10-30T03:45:38.598Z,67243.13
2022-10-30T03:48:07.667Z,68948.63
2022-10-30T03:50:35.122Z,69284.22
2022-10-30T03:53:03.388Z,70986.63
2022-10-30T03:55:30.981Z,72685.03
2022-10-30T03:57:58.970Z,69965.44
2022-10-30T04:00:26.751Z,72337.72
2022-10-30T04:02:54.261Z,69950.69
2022-10-30T04:05:24.909Z,69621.56
2022-10-30T04:07:57.091Z,70646.78
2022-10-30T04:10:24.824Z,73356.41
2022-10-30T04:12:52.835Z,73350.81
2022-10-30T04:15:20.362Z,72326.75
2022-10-30T04:17:51.406Z,71989.91
2022-10-30T04:20:19.232Z,70628.31
2022-10-30T04:22:48.744Z,70287.41
2022-10-30T04:25:16.377Z,71310.25
2022-10-30T04:27:44.921Z,68922.44
2022-10-30T04:30:13.775Z,71654.31
2022-10-30T04:32:47.283Z,72339.56
2022-10-30T04:35:15.438Z,71651.91
2022-10-30T04:37:42.954Z,73014.56
2022-10-30T04:40:13.358Z,73009.66
2022-10-30T04:42:40.813Z,71634.34
2022-10-30T04:45:14.885Z,72000.88
2022-10-30T04:47:42.977Z,73005.94
2022-10-30T04:50:11.007Z,72992.38
2022-10-30T04:52:39.527Z,72310.88
2022-10-30T04:55:08.732Z,71297.03
2022-10-30T04:57:37.615Z,71952.25
2022-10-30T05:00:06.335Z,70588.41
2022-10-30T05:02:35.871Z,70571.09
2022-10-30T05:05:03.734Z,69211.72
2022-10-30T05:07:31.188Z,68534.81
2022-10-30T05:09:58.673Z,67524.47
2022-10-30T05:12:26.139Z,66516.38
2022-10-30T05:14:55.023Z,67527.91
2022-10-30T05:17:22.639Z,67542.72
2022-10-30T05:19:50.137Z,68197.25
2022-10-30T05:22:17.603Z,67858.00
2022-10-30T05:24:45.069Z,67186.94
2022-10-30T05:27:12.525Z,67188.66
2022-10-30T05:29:39.980Z,67520.47
2022-10-30T05:32:08.826Z,67189.75
2022-10-30T05:34:36.377Z,67182.41
2022-10-30T05:37:03.933Z,67523.34
2022-10-30T05:39:31.366Z,67521.06
2022-10-30T05:41:58.822Z,67523.34
2022-10-30T05:44:47.401Z,67205.66
2022-10-30T05:47:18.424Z,67876.91
2022-10-30T05:49:45.886Z,68894.50
2022-10-30T05:52:13.320Z,68579.97
2022-10-30T05:54:40.773Z,69928.81
2022-10-30T05:57:08.244Z,70612.81
2022-10-30T05:59:35.716Z,71297.03
2022-10-30T06:02:06.744Z,71300.66
2022-10-30T06:04:35.566Z,71992.38
2022-10-30T06:07:03.048Z,72674.63
2022-10-30T06:09:30.529Z,73031.81
2022-10-30T06:11:58.541Z,74729.25
2022-10-30T06:14:26.001Z,75072.63
2022-10-30T06:16:53.439Z,75406.50
2022-10-30T06:19:20.938Z,75412.84
2022-10-30T06:21:49.782Z,76103.00
2022-10-30T06:24:17.205Z,75421.72
2022-10-30T06:26:44.666Z,77122.22
2022-10-30T06:29:12.162Z,78159.41
2022-10-30T06:31:39.615Z,79181.25
2022-10-30T06:34:07.035Z,79523.94
2022-10-30T06:36:34.594Z,79168.56
2022-10-30T06:39:03.797Z,78500.66
2022-10-30T06:41:31.274Z,78500.66
2022-10-30T06:43:58.768Z,77814.25
2022-10-30T06:46:30.547Z,77832.63
2022-10-30T06:49:01.180Z,79558.09
2022-10-30T06:51:30.281Z,82300.25
2022-10-30T06:53:57.712Z,85038.03
2022-10-30T06:56:26.581Z,87443.13
2022-10-30T06:58:54.037Z,90889.16
2022-10-30T07:01:25.583Z,94677.81
2022-10-30T07:03:53.077Z,97077.09
2022-10-30T07:06:20.714Z,98817.16
2022-10-30T07:08:48.253Z,102254.06
2022-10-30T07:11:15.731Z,105354.31
2022-10-30T07:13:44.504Z,106385.69
2022-10-30T07:16:12.189Z,107073.72
2022-10-30T07:18:39.642Z,108100.13
2022-10-30T07:21:07.331Z,108458.38
2022-10-30T07:23:34.780Z,107407.41
2022-10-30T07:26:04.136Z,105339.25
2022-10-30T07:28:32.392Z,102930.06
2022-10-30T07:31:01.518Z,102931.78
2022-10-30T07:33:28.971Z,102961.19
2022-10-30T07:35:56.466Z,104684.22
2022-10-30T07:38:24.036Z,105410.13
2022-10-30T07:40:54.140Z,110273.78
2022-10-30T07:43:21.595Z,119286.25
2022-10-30T07:45:49.136Z,128289.38
2022-10-30T07:48:17.934Z,134203.66
2022-10-30T07:50:45.375Z,134209.28
2022-10-30T07:53:12.874Z,134907.88
2022-10-30T07:55:40.614Z,135258.97
2022-10-30T07:58:08.050Z,131445.25
2022-10-30T08:00:35.771Z,130740.78
2022-10-30T08:03:03.616Z,128321.69
2022-10-30T08:05:32.839Z,127981.09
2022-10-30T08:08:00.597Z,131450.81
2022-10-30T08:10:28.560Z,135286.25
2022-10-30T08:12:56.062Z,135643.13
2022-10-30T08:15:24.276Z,141242.19
2022-10-30T08:17:52.784Z,147160.66
2022-10-30T08:20:22.817Z,150382.75
2022-10-30T08:22:52.623Z,149998.19
2022-10-30T08:25:21.982Z,147482.41
2022-10-30T08:27:55.000Z,147897.41
2022-10-30T08:31:19.242Z,147144.56
2022-10-30T08:33:47.063Z,146440.59
2022-10-30T08:36:14.612Z,145796.81
2022-10-30T08:38:43.416Z,153903.56
2022-10-30T08:41:11.124Z,153952.66
2022-10-30T08:43:39.057Z,153991.50
2022-10-30T08:46:06.922Z,154019.91
2022-10-30T08:48:34.373Z,154057.44
2022-10-30T08:51:01.991Z,154071.69
2022-10-30T08:53:29.572Z,154120.81
2022-10-30T08:55:58.401Z,154154.53
2022-10-30T08:58:27.252Z,154167.47
2022-10-30T09:01:00.158Z,154206.28
2022-10-30T09:03:28.897Z,154234.75
2022-10-30T09:05:59.025Z,154255.41
2022-10-30T09:08:26.621Z,154312.38
2022-10-30T09:10:55.844Z,154327.91
2022-10-30T09:13:24.989Z,154357.69
2022-10-30T09:15:54.304Z,154358.94
2022-10-30T09:18:21.951Z,154393.94
2022-10-30T09:20:49.978Z,154408.22
2022-10-30T09:23:17.504Z,154434.09
2022-10-30T09:25:44.955Z,154449.66
2022-10-30T09:28:12.483Z,154466.44
2022-10-30T09:30:41.337Z,154496.25
2022-10-30T09:33:10.138Z,154537.69
2022-10-30T09:35:37.588Z,154571.38
2022-10-30T09:38:05.074Z,154588.19
2022-10-30T09:40:45.281Z,154527.34
2022-10-30T09:43:26.379Z,154462.59
2022-10-30T09:46:10.129Z,154413.38
2022-10-30T09:49:13.172Z,154404.31
2022-10-30T09:52:03.745Z,154482.00
2022-10-30T09:54:45.604Z,154558.44
2022-10-30T09:57:22.684Z,154616.69
2022-10-30T10:00:02.545Z,154617.97
2022-10-30T10:02:37.048Z,154647.84
2022-10-30T10:05:20.333Z,154649.13
2022-10-30T10:07:50.594Z,154601.19
2022-10-30T10:10:24.501Z,154581.72
2022-10-30T10:12:58.724Z,154554.53
2022-10-30T10:15:38.324Z,154566.19
2022-10-30T10:18:15.886Z,154603.72
2022-10-30T10:20:48.190Z,154695.81
2022-10-30T10:23:19.949Z,154756.69
2022-10-30T10:25:53.941Z,154799.44
2022-10-30T10:28:48.494Z,154887.63
2022-10-30T10:31:28.816Z,154903.19
2022-10-30T10:34:15.922Z,154935.59
2022-10-30T10:36:48.843Z,154935.59
2022-10-30T10:39:33.522Z,154973.19
2022-10-30T10:42:12.323Z,154962.84
2022-10-30T10:44:50.293Z,154936.91
2022-10-30T10:47:37.075Z,154936.91
2022-10-30T10:50:19.114Z,154900.56
2022-10-30T10:52:50.390Z,154944.66
2022-10-30T10:55:21.777Z,155027.66
2022-10-30T10:57:49.541Z,155022.47
2022-10-30T11:00:19.310Z,155006.94
2022-10-30T11:02:55.511Z,154921.34
2022-10-30T11:05:32.510Z,154898.03
2022-10-30T11:08:05.277Z,154912.28
2022-10-30T11:10:32.732Z,154921.34
2022-10-30T11:13:01.455Z,154999.13
2022-10-30T11:15:40.713Z,155057.50
2022-10-30T11:18:09.953Z,155089.91
2022-10-30T11:20:44.042Z,155123.69
2022-10-30T11:23:34.931Z,155115.94
2022-10-30T11:26:03.166Z,155157.41
2022-10-30T11:28:42.755Z,155157.41
2022-10-30T11:31:23.087Z,155172.97
2022-10-30T11:33:50.955Z,155157.41
2022-10-30T11:36:22.981Z,155196.34
2022-10-30T11:38:50.793Z,155162.59
2022-10-30T11:41:19.237Z,155180.78
2022-10-30T11:43:49.154Z,155165.22
2022-10-30T11:46:23.519Z,155193.75
2022-10-30T11:48:54.824Z,155227.47
2022-10-30T11:51:36.829Z,155258.63
2022-10-30T11:54:05.625Z,155267.69
2022-10-30T11:56:35.586Z,155249.56
2022-10-30T11:59:05.683Z,155224.84
2022-10-30T12:01:36.529Z,155217.09
2022-10-30T12:04:23.344Z,155246.94
2022-10-30T12:07:08.177Z,155237.88
2022-10-30T12:09:44.162Z,155219.69
2022-10-30T12:12:13.281Z,155208.03
2022-10-30T12:14:40.914Z,155191.16
2022-10-30T12:17:08.466Z,155193.75
2022-10-30T12:19:36.345Z,155154.84
2022-10-30T12:22:08.972Z,155158.69
2022-10-30T12:24:40.416Z,155170.41
2022-10-30T12:27:18.190Z,155184.66
2022-10-30T12:30:10.403Z,155172.97
2022-10-30T12:32:49.010Z,155178.19
2022-10-30T12:35:28.359Z,155182.09
2022-10-30T12:37:59.787Z,155174.28
2022-10-30T12:40:31.446Z,155172.97
2022-10-30T12:43:04.726Z,155179.47
2022-10-30T12:45:38.558Z,155183.38
2022-10-30T12:48:16.525Z,155165.22
2022-10-30T12:50:52.686Z,155149.63
2022-10-30T12:53:30.032Z,155166.50
2022-10-30T12:56:02.648Z,155126.31
2022-10-30T12:58:38.406Z,155172.97
2022-10-30T13:01:17.057Z,155163.91
2022-10-30T13:03:52.455Z,155154.84
2022-10-30T13:06:24.747Z,155152.25
2022-10-30T13:09:05.790Z,155145.72
2022-10-30T13:11:45.450Z,155157.41
2022-10-30T13:14:17.017Z,155179.47
2022-10-30T13:16:44.505Z,155141.88
2022-10-30T13:19:13.828Z,155126.31
2022-10-30T13:21:49.762Z,155105.50
2022-10-30T13:24:24.558Z,155118.50
2022-10-30T13:26:57.978Z,155102.91
2022-10-30T13:29:30.750Z,155091.25
2022-10-30T13:32:33.768Z,155074.38
2022-10-30T13:35:15.714Z,155058.81
2022-10-30T13:37:50.460Z,155063.97
2022-10-30T13:40:29.381Z,155053.59
2022-10-30T13:43:04.914Z,155030.25
2022-10-30T13:45:59.136Z,155014.69
2022-10-30T13:48:39.794Z,155003.03
2022-10-30T13:51:30.239Z,154983.56
2022-10-30T13:54:05.861Z,154983.56
2022-10-30T13:56:36.203Z,154973.19
2022-10-30T13:59:16.923Z,154944.66
2022-10-30T14:01:54.467Z,154961.53
2022-10-30T14:04:33.327Z,154962.84
2022-10-30T14:07:16.800Z,154940.78
2022-10-30T14:09:54.549Z,154918.75
2022-10-30T14:12:54.049Z,154923.94
2022-10-30T14:15:27.936Z,154918.75
2022-10-30T14:18:30.940Z,154859.03
2022-10-30T14:20:59.999Z,154844.84
2022-10-30T14:23:33.526Z,154870.81
2022-10-30T14:26:14.970Z,154850.00
2022-10-30T14:28:45.487Z,154838.31
2022-10-30T14:31:16.565Z,154824.06
2022-10-30T14:33:47.436Z,154773.53
2022-10-30T14:36:18.149Z,154761.88
2022-10-30T14:38:55.382Z,154745.03
2022-10-30T14:41:46.096Z,154765.72
2022-10-30T14:44:25.498Z,154747.63
2022-10-30T14:47:10.665Z,154711.31
2022-10-30T14:49:47.505Z,154651.75
2022-10-30T14:52:35.948Z,154667.28
2022-10-30T14:55:19.653Z,154675.03
2022-10-30T14:57:52.075Z,154641.38
2022-10-30T15:00:47.890Z,154659.50
2022-10-30T15:03:26.514Z,154617.97
2022-10-30T15:05:56.770Z,154592.09
2022-10-30T15:08:42.785Z,154607.63
2022-10-30T15:11:36.032Z,154597.28
2022-10-30T15:14:20.796Z,154544.19
2022-10-30T15:16:52.351Z,154526.03
2022-10-30T15:19:22.861Z,154497.53
2022-10-30T15:21:54.153Z,154457.41
2022-10-30T15:24:28.201Z,154423.75
2022-10-30T15:27:02.053Z,154415.97
2022-10-30T15:29:32.934Z,154426.31
2022-10-30T15:32:03.802Z,154395.28
2022-10-30T15:34:33.006Z,154403.03
2022-10-30T15:37:00.456Z,154383.59
2022-10-30T15:39:27.907Z,154400.44
2022-10-30T15:41:58.342Z,154408.22
2022-10-30T15:44:28.343Z,154395.28
2022-10-30T15:46:57.754Z,154346.00
2022-10-30T15:49:33.527Z,154313.69
2022-10-30T15:52:03.590Z,154333.06
2022-10-30T15:54:33.114Z,154314.97
2022-10-30T15:57:42.848Z,154296.84
2022-10-30T15:59:55.123Z,154287.78
2022-10-30T16:02:24.601Z,154309.78
2022-10-30T16:04:54.324Z,154296.84
2022-10-30T16:07:24.254Z,154256.72
2022-10-30T16:09:56.401Z,154237.28
2022-10-30T16:12:28.375Z,154216.63
2022-10-30T16:14:57.123Z,154190.75
2022-10-30T16:17:26.428Z,154206.28
2022-10-30T16:19:57.802Z,154201.06
2022-10-30T16:22:28.923Z,154164.88
2022-10-30T16:24:57.833Z,154141.53
2022-10-30T16:27:27.318Z,154123.41
2022-10-30T16:29:58.368Z,154126.00
2022-10-30T16:32:28.526Z,154087.22
2022-10-30T16:34:59.340Z,154105.28
2022-10-30T16:37:33.036Z,154083.31
2022-10-30T16:40:03.821Z,154071.69
2022-10-30T16:42:31.466Z,154050.97
2022-10-30T16:45:44.649Z,154045.81
2022-10-30T16:48:27.563Z,152456.59
2022-10-30T16:51:02.921Z,153200.63
2022-10-30T16:53:31.495Z,149951.94
2022-10-30T16:56:00.469Z,144506.91
2022-10-30T16:58:30.957Z,140682.38
2022-10-30T17:01:05.446Z,139994.44
2022-10-30T17:03:37.498Z,143153.03
2022-10-30T17:06:24.921Z,142093.00
2022-10-30T17:08:53.799Z,139634.03
2022-10-30T17:11:34.035Z,137872.97
2022-10-30T17:14:04.932Z,135410.13
2022-10-30T17:16:34.011Z,134395.38
2022-10-30T17:19:24.418Z,132965.47
2022-10-30T17:21:54.199Z,133322.25
2022-10-30T17:24:24.033Z,129102.47
2022-10-30T17:26:56.349Z,124245.19
2022-10-30T17:29:44.979Z,122509.22
2022-10-30T17:32:19.744Z,120387.25
2022-10-30T17:34:47.616Z,116944.97
2022-10-30T17:37:16.422Z,118359.38
2022-10-30T17:39:43.859Z,120044.97
2022-10-30T17:42:12.152Z,117963.56
2022-10-30T17:44:39.776Z,117614.53
2022-10-30T17:47:15.503Z,116559.78
2022-10-30T17:49:43.239Z,114842.13
2022-10-30T17:52:13.152Z,116216.81
2022-10-30T17:54:42.822Z,114488.69
2022-10-30T17:57:12.083Z,113803.94
2022-10-30T17:59:39.847Z,116228.53
2022-10-30T18:02:14.322Z,118295.84
2022-10-30T18:04:42.980Z,117267.47
2022-10-30T18:07:10.608Z,117943.78
2022-10-30T18:09:38.221Z,118303.75
2022-10-30T18:12:08.600Z,118654.88
2022-10-30T18:14:36.095Z,117923.97
2022-10-30T18:17:03.572Z,117914.06
2022-10-30T18:19:31.509Z,114121.88
2022-10-30T18:21:58.979Z,116534.38
2022-10-30T18:24:26.829Z,114792.03
2022-10-30T18:26:54.875Z,118598.16
2022-10-30T18:29:23.837Z,116503.06
2022-10-30T18:31:51.293Z,115141.56
2022-10-30T18:34:25.278Z,113736.16
2022-10-30T18:36:52.743Z,112671.47
2022-10-30T18:39:20.340Z,111995.03
2022-10-30T18:41:49.406Z,110961.25
2022-10-30T18:44:18.252Z,112680.94
2022-10-30T18:46:47.052Z,111995.03
2022-10-30T18:49:14.561Z,112671.47
2022-10-30T18:51:42.730Z,113025.31
2022-10-30T18:54:15.375Z,110583.63
2022-10-30T18:56:42.889Z,111254.16
2022-10-30T18:59:10.377Z,107448.97
2022-10-30T19:01:38.105Z,107112.44
2022-10-30T19:04:10.154Z,105713.75
2022-10-30T19:06:38.726Z,105369.34
2022-10-30T19:09:07.068Z,104688.59
2022-10-30T19:11:37.279Z,104323.22
2022-10-30T19:14:10.795Z,103613.00
2022-10-30T19:16:38.578Z,101866.38
2022-10-30T19:19:06.047Z,99810.63
2022-10-30T19:21:39.106Z,98759.06
2022-10-30T19:24:13.341Z,96719.03
2022-10-30T19:26:40.652Z,98787.25
2022-10-30T19:29:08.099Z,100121.50
2022-10-30T19:31:35.585Z,94985.91
2022-10-30T19:34:03.284Z,97734.50
2022-10-30T19:36:33.569Z,97371.44
2022-10-30T19:39:08.573Z,98074.59
2022-10-30T19:41:36.293Z,95994.47
2022-10-30T19:44:03.875Z,96700.34
2022-10-30T19:46:31.396Z,96010.63
2022-10-30T19:48:59.850Z,96324.69
2022-10-30T19:51:28.341Z,96312.53
2022-10-30T19:53:55.896Z,95614.34
2022-10-30T19:56:24.963Z,92877.75
2022-10-30T19:58:52.502Z,93196.22
2022-10-30T20:01:20.094Z,92144.28
2022-10-30T20:03:47.612Z,90444.41
2022-10-30T20:06:15.767Z,89093.91
2022-10-30T20:08:43.444Z,89778.59
2022-10-30T20:11:10.928Z,89429.47
2022-10-30T20:13:39.716Z,90779.16
2022-10-30T20:16:07.919Z,88735.94
2022-10-30T20:18:36.851Z,88722.50
2022-10-30T20:21:08.157Z,86686.19
2022-10-30T20:23:35.620Z,85653.06
2022-10-30T20:26:05.283Z,86678.91
2022-10-30T20:28:35.988Z,84967.94
2022-10-30T20:31:05.770Z,84278.69
2022-10-30T20:33:33.693Z,82903.66
2022-10-30T20:36:01.189Z,81860.50
2022-10-30T20:38:31.416Z,80502.06
2022-10-30T20:40:59.995Z,82179.06
2022-10-30T20:43:30.838Z,79800.03
2022-10-30T20:45:58.507Z,78114.66
2022-10-30T20:48:28.063Z,78107.38
2022-10-30T20:50:56.550Z,80127.00
2022-10-30T20:53:24.366Z,80136.47
2022-10-30T20:55:52.068Z,79471.69
2022-10-30T20:58:20.415Z,81168.94
2022-10-30T21:00:48.133Z,79115.22
2022-10-30T21:03:15.957Z,81510.22
2022-10-30T21:05:46.307Z,78774.84
2022-10-30T21:08:14.371Z,80456.59
2022-10-30T21:10:42.885Z,79747.63
2022-10-30T21:13:11.414Z,78410.72
2022-10-30T21:15:40.013Z,78414.69
2022-10-30T21:18:08.141Z,79769.13
2022-10-30T21:20:36.697Z,77726.41
2022-10-30T21:23:05.549Z,79410.75
2022-10-30T21:25:33.141Z,78393.56
2022-10-30T21:28:01.826Z,77026.03
2022-10-30T21:30:29.673Z,75663.06
2022-10-30T21:32:57.504Z,78709.16
2022-10-30T21:35:25.156Z,77025.38
2022-10-30T21:37:52.618Z,77012.41
2022-10-30T21:40:21.441Z,73959.69
2022-10-30T21:42:49.063Z,77031.88
2022-10-30T22:02:15.722Z,73547.34
2022-10-30T22:04:43.221Z,71531.66
2022-10-30T22:07:10.830Z,72206.00
2022-10-30T22:09:38.322Z,71519.59
2022-10-30T22:12:06.267Z,70509.16
2022-10-30T22:14:33.701Z,70515.13
2022-10-30T22:17:01.184Z,71525.00
2022-10-30T22:19:29.979Z,70513.34
2022-10-30T22:21:57.458Z,68483.91
2022-10-30T22:24:25.079Z,71192.38
2022-10-30T22:26:52.597Z,69139.28
2022-10-30T22:29:20.045Z,69480.63
2022-10-30T22:31:47.517Z,71833.34
2022-10-30T22:34:14.960Z,70831.63
2022-10-30T22:36:43.810Z,69796.69
2022-10-30T22:39:13.245Z,70158.75
2022-10-30T22:41:41.579Z,71487.59
2022-10-30T22:44:12.700Z,70459.75
2022-10-30T22:46:40.962Z,69446.59
2022-10-30T22:49:09.066Z,69094.34
2022-10-30T22:51:39.844Z,70776.59
2022-10-30T22:54:12.055Z,68400.59
2022-10-30T22:56:40.550Z,67375.13
2022-10-30T22:59:11.227Z,67379.69
2022-10-30T23:01:39.471Z,67362.59
2022-10-30T23:04:08.850Z,66010.16
2022-10-30T23:06:36.739Z,66336.72
2022-10-30T23:09:09.164Z,64978.22
2022-10-30T23:11:36.947Z,65320.25
2022-10-30T23:14:04.480Z,64646.59
2022-10-30T23:16:31.965Z,61629.72
2022-10-30T23:19:00.925Z,63987.63
2022-10-30T23:21:30.893Z,63983.31
2022-10-30T23:23:59.397Z,63312.88
2022-10-30T23:26:30.347Z,62617.53
2022-10-30T23:28:59.111Z,62947.03
2022-10-30T23:31:28.303Z,63950.28
2022-10-30T23:33:57.412Z,62942.22
2022-10-30T23:36:25.411Z,61587.47
2022-10-30T23:38:53.601Z,63262.00
2022-10-30T23:41:21.102Z,63918.88
2022-10-30T23:43:53.545Z,60885.53
2022-10-30T23:46:21.000Z,59541.78
2022-10-30T23:48:48.494Z,61901.72
2022-10-30T23:51:16.534Z,62575.66
2022-10-30T23:53:44.151Z,60876.78
2022-10-30T23:56:12.642Z,62573.00
2022-10-30T23:58:43.540Z,62234.19
